KFPY/FPY METAR and TAF weather

Enter ICAO airport designator
Station Type Date Time Source
KFPY METAR 2021/09/28 05:15 UTC NOAA

KFPY 280515Z AUTO 09003KT 10SM CLR 21/20 A3008 RMK AO2 T02120203


Station Type Date Time Source
KFPY Decoded METAR 2021/09/28 05:15 UTC NOAA

Station name not available
Sep 28, 2021 - 01:15 AM EDT / 2021.09.28 0515 UTC
Wind: from the E (090 degrees) at 3 MPH (3 KT):0
Visibility: 10 mile(s):0
Sky conditions: clear
Temperature: 70.2 F (21.2 C)
Dew Point: 68.5 F (20.3 C)
Relative Humidity: 94%
Pressure (altimeter): 30.08 in. Hg (1018 hPa)
ob: KFPY 280515Z AUTO 09003KT 10SM CLR 21/20 A3008 RMK AO2 T02120203
cycle: 5

Station Type Date Time Source
KFPY TAF UTC NOAA

Error!

Example: see airport list